createdAt,value
2022-11-29T00:02:20.241Z,38.10
2022-11-29T00:07:23.351Z,24.90
2022-11-29T00:12:26.312Z,25.30
2022-11-29T00:17:29.217Z,22.10
2022-11-29T00:22:32.147Z,23.40
2022-11-29T00:27:35.166Z,26.20
2022-11-29T00:32:38.162Z,19.70
2022-11-29T00:37:41.063Z,27.50
2022-11-29T00:42:44.034Z,24.30
2022-11-29T00:47:46.972Z,22.50
2022-11-29T00:52:50.084Z,21.00
2022-11-29T00:57:52.998Z,18.70
2022-11-29T01:02:56.139Z,23.00
2022-11-29T01:07:59.174Z,24.40
2022-11-29T01:13:02.241Z,20.20
2022-11-29T01:18:05.464Z,24.30
2022-11-29T01:23:08.449Z,26.30
2022-11-29T01:28:11.372Z,22.30
2022-11-29T01:33:14.320Z,26.80
2022-11-29T01:38:17.809Z,26.90
2022-11-29T01:43:21.211Z,22.90
2022-11-29T01:48:32.825Z,23.10
2022-11-29T01:53:35.825Z,25.00
2022-11-29T01:58:39.231Z,23.10
2022-11-29T02:03:42.564Z,20.70
2022-11-29T02:08:45.489Z,21.90
2022-11-29T02:14:25.970Z,20.50
2022-11-29T02:19:59.236Z,19.00
2022-11-29T02:25:29.492Z,24.10
2022-11-29T02:31:03.345Z,19.30
2022-11-29T02:36:26.582Z,27.20
2022-11-29T02:42:33.337Z,17.20
2022-11-29T02:48:26.948Z,24.20
2022-11-29T02:53:45.758Z,23.90
2022-11-29T02:59:36.514Z,23.10
2022-11-29T03:05:07.142Z,27.90
2022-11-29T03:10:53.401Z,25.30
2022-11-29T03:16:07.851Z,20.10
2022-11-29T03:21:19.882Z,24.00
2022-11-29T03:27:00.937Z,27.80
2022-11-29T03:32:16.222Z,21.30
2022-11-29T03:37:30.793Z,24.60
2022-11-29T03:43:01.931Z,21.00
2022-11-29T03:48:07.930Z,22.60
2022-11-29T03:53:39.292Z,21.10
2022-11-29T03:59:06.979Z,21.30
2022-11-29T04:05:06.596Z,25.10
2022-11-29T04:11:04.841Z,19.70
2022-11-29T04:17:10.549Z,18.50
2022-11-29T04:22:19.177Z,18.10
2022-11-29T04:27:41.720Z,24.70
2022-11-29T04:33:21.615Z,24.50
2022-11-29T04:39:02.874Z,26.10
2022-11-29T04:44:25.336Z,21.60
2022-11-29T04:49:39.586Z,27.30
2022-11-29T04:55:10.802Z,26.10
2022-11-29T05:00:20.156Z,23.80
2022-11-29T05:05:46.976Z,23.80
2022-11-29T05:11:26.712Z,23.00
2022-11-29T05:16:54.212Z,30.70
2022-11-29T05:22:48.296Z,28.20
2022-11-29T05:28:09.858Z,28.60
2022-11-29T05:33:36.424Z,29.00
2022-11-29T05:39:00.098Z,23.50
2022-11-29T05:44:22.565Z,27.70
2022-11-29T05:50:04.744Z,30.30
2022-11-29T05:55:38.050Z,31.10
2022-11-29T06:00:51.660Z,28.90
2022-11-29T06:06:08.494Z,23.50
2022-11-29T06:11:30.770Z,32.10
2022-11-29T06:17:34.350Z,28.70
2022-11-29T06:22:47.861Z,23.70
2022-11-29T06:28:23.089Z,26.80
2022-11-29T06:33:58.779Z,28.90
2022-11-29T06:39:02.247Z,26.70
2022-11-29T06:44:06.185Z,32.10
2022-11-29T06:49:18.828Z,32.40
2022-11-29T06:55:03.511Z,33.10
2022-11-29T07:00:18.312Z,32.10
2022-11-29T07:05:36.122Z,27.30
2022-11-29T07:10:41.994Z,28.50
2022-11-29T07:16:00.076Z,32.90
2022-11-29T07:21:03.080Z,31.00
2022-11-29T07:26:33.145Z,28.00
2022-11-29T07:31:54.024Z,33.60
2022-11-29T07:37:34.726Z,31.10
2022-11-29T07:42:46.872Z,26.50
2022-11-29T07:47:50.354Z,25.90
2022-11-29T07:52:55.503Z,20.40
2022-11-29T07:57:58.468Z,35.40
2022-11-29T08:03:01.531Z,41.40
2022-11-29T08:08:06.330Z,25.50
2022-11-29T08:13:09.550Z,27.50
2022-11-29T08:18:13.925Z,30.80
2022-11-29T08:23:16.830Z,30.60
2022-11-29T08:28:19.722Z,28.10
2022-11-29T08:33:22.645Z,30.20
2022-11-29T08:38:25.584Z,27.00
2022-11-29T08:43:30.584Z,25.30
2022-11-29T08:48:33.980Z,24.70
2022-11-29T08:53:43.275Z,24.50
2022-11-29T08:58:46.467Z,25.60
2022-11-29T09:04:07.167Z,25.80
2022-11-29T09:09:10.169Z,21.30
2022-11-29T09:14:17.178Z,31.10
2022-11-29T09:19:20.118Z,25.10
2022-11-29T09:24:23.041Z,30.50
2022-11-29T09:29:26.086Z,28.10
2022-11-29T09:34:29.050Z,28.50
2022-11-29T09:39:32.119Z,24.50
2022-11-29T09:44:54.107Z,24.50
2022-11-29T09:50:21.379Z,25.40
2022-11-29T09:55:43.132Z,27.60
2022-11-29T10:00:52.206Z,24.00
2022-11-29T10:06:08.441Z,28.20
2022-11-29T10:11:33.766Z,23.50
2022-11-29T10:16:44.535Z,22.70
2022-11-29T10:22:00.861Z,29.40
2022-11-29T10:27:18.565Z,32.70
2022-11-29T10:32:25.518Z,24.20
2022-11-29T10:37:32.796Z,27.10
2022-11-29T10:42:53.335Z,33.10
2022-11-29T10:48:07.883Z,46.10
2022-11-29T10:53:32.677Z,38.80
2022-11-29T10:58:36.405Z,30.70
2022-11-29T11:03:54.235Z,27.40
2022-11-29T11:09:26.785Z,25.50
2022-11-29T11:14:38.851Z,27.70
2022-11-29T11:19:42.470Z,42.80
2022-11-29T11:24:45.642Z,34.00
2022-11-29T11:29:52.926Z,29.30
2022-11-29T11:35:00.968Z,23.40
2022-11-29T11:40:29.449Z,36.60
2022-11-29T11:45:36.770Z,26.70
2022-11-29T11:50:49.887Z,22.80
2022-11-29T11:56:07.029Z,28.40
2022-11-29T12:01:12.678Z,26.70
2022-11-29T12:06:43.919Z,26.60
2022-11-29T12:12:07.053Z,30.40
2022-11-29T12:17:37.352Z,23.40
2022-11-29T12:23:11.577Z,27.00
2022-11-29T12:28:20.785Z,25.90
2022-11-29T12:34:12.007Z,27.50
2022-11-29T12:40:04.050Z,21.40
2022-11-29T12:45:38.076Z,34.50
2022-11-29T12:50:53.096Z,37.80
2022-11-29T12:56:21.498Z,28.90
2022-11-29T13:01:36.354Z,23.50
2022-11-29T13:07:22.604Z,24.80
2022-11-29T13:13:27.507Z,30.90
2022-11-29T13:18:39.414Z,28.10
2022-11-29T13:24:08.228Z,31.00
2022-11-29T13:29:17.955Z,25.70
2022-11-29T13:34:41.720Z,23.10
2022-11-29T13:40:19.232Z,33.50
2022-11-29T13:45:26.543Z,26.00
2022-11-29T13:50:42.603Z,33.00
2022-11-29T13:56:00.829Z,29.60
2022-11-29T14:01:09.951Z,24.10
2022-11-29T14:06:31.541Z,25.60
2022-11-29T14:11:48.998Z,24.80
2022-11-29T14:17:01.918Z,22.50
2022-11-29T14:22:19.138Z,24.30
2022-11-29T14:27:22.001Z,27.10
2022-11-29T14:33:03.329Z,45.20
2022-11-29T14:38:36.284Z,27.50
2022-11-29T14:43:43.297Z,25.20
2022-11-29T14:48:55.416Z,25.60
2022-11-29T14:54:24.974Z,25.80
2022-11-29T14:59:48.803Z,25.90
2022-11-29T15:04:57.108Z,36.50
2022-11-29T15:10:05.450Z,65.70
2022-11-29T15:15:46.510Z,44.10
2022-11-29T15:21:13.775Z,35.10
2022-11-29T15:26:22.394Z,59.30
2022-11-29T15:31:26.671Z,51.20
2022-11-29T15:36:30.669Z,39.10
2022-11-29T15:41:35.722Z,31.20
2022-11-29T15:46:39.242Z,48.00
2022-11-29T15:51:42.815Z,29.30
2022-11-29T15:57:06.274Z,57.70
2022-11-29T16:02:25.227Z,96.90
2022-11-29T16:07:34.425Z,57.30
2022-11-29T16:12:57.822Z,54.10
2022-11-29T16:18:25.660Z,86.90
2022-11-29T16:23:38.918Z,101.50
2022-11-29T16:28:45.932Z,36.40
2022-11-29T16:33:52.499Z,45.00
2022-11-29T16:39:08.213Z,34.20
2022-11-29T16:44:40.460Z,30.60
2022-11-29T16:49:45.040Z,42.60
2022-11-29T16:54:49.433Z,51.90
2022-11-29T16:59:52.545Z,77.50
2022-11-29T17:04:59.021Z,47.20
2022-11-29T17:10:04.408Z,36.00
2022-11-29T17:15:08.413Z,68.10
2022-11-29T17:20:13.235Z,135.30
2022-11-29T17:25:16.784Z,80.00
2022-11-29T17:30:22.598Z,61.40
2022-11-29T17:35:25.586Z,49.40
2022-11-29T17:40:28.643Z,46.50
2022-11-29T17:45:31.975Z,47.30
2022-11-29T17:50:38.720Z,42.40
2022-11-29T17:55:42.037Z,30.90
2022-11-29T18:00:45.808Z,49.10
2022-11-29T18:05:48.862Z,48.20
2022-11-29T18:11:05.766Z,30.80
2022-11-29T18:16:20.060Z,40.10
2022-11-29T18:21:24.861Z,36.30
2022-11-29T18:26:31.215Z,50.40
2022-11-29T18:31:38.208Z,51.10
2022-11-29T18:36:48.445Z,49.40
2022-11-29T18:41:52.202Z,34.20
2022-11-29T18:46:57.200Z,28.10
2022-11-29T18:52:00.097Z,29.20
2022-11-29T18:57:03.228Z,36.50
2022-11-29T19:02:06.261Z,54.70
2022-11-29T19:07:09.285Z,36.50
2022-11-29T19:12:12.274Z,35.20
2022-11-29T19:17:15.287Z,31.70
2022-11-29T19:22:18.366Z,44.30
2022-11-29T19:27:22.504Z,47.20
2022-11-29T19:32:25.515Z,60.50
2022-11-29T19:37:28.506Z,61.00
2022-11-29T19:42:31.624Z,37.20
2022-11-29T19:47:35.087Z,103.30
2022-11-29T19:52:38.638Z,82.80
2022-11-29T19:57:41.720Z,43.50
2022-11-29T20:02:47.246Z,40.40
2022-11-29T20:07:50.377Z,33.00
2022-11-29T20:12:54.552Z,52.80
2022-11-29T20:17:57.382Z,46.00
2022-11-29T20:23:00.413Z,34.80
2022-11-29T20:28:04.463Z,33.30
2022-11-29T20:33:07.599Z,26.70
2022-11-29T20:38:55.913Z,33.30
2022-11-29T20:44:02.643Z,31.30
2022-11-29T20:49:06.759Z,31.50
2022-11-29T20:54:12.043Z,29.70
2022-11-29T20:59:14.946Z,30.00
2022-11-29T21:04:22.859Z,24.90
2022-11-29T21:09:28.457Z,32.60
2022-11-29T21:14:31.983Z,30.90
2022-11-29T21:19:35.801Z,30.60
2022-11-29T21:24:47.040Z,26.30
2022-11-29T21:29:51.594Z,29.70
2022-11-29T21:34:54.443Z,27.50
2022-11-29T21:39:57.718Z,33.00
2022-11-29T21:45:00.681Z,46.00
2022-11-29T21:50:04.066Z,44.10
2022-11-29T21:55:07.461Z,31.80
2022-11-29T22:00:11.030Z,33.60
2022-11-29T22:05:14.006Z,25.30
2022-11-29T22:10:17.072Z,35.00
2022-11-29T22:15:24.447Z,31.50
2022-11-29T22:20:28.143Z,32.90
2022-11-29T22:25:31.088Z,34.10
2022-11-29T22:30:35.956Z,28.60
2022-11-29T22:35:44.153Z,18.70
2022-11-29T22:40:47.173Z,22.80
2022-11-29T22:45:50.065Z,24.70
2022-11-29T22:50:52.966Z,26.90
2022-11-29T22:56:01.231Z,41.70
2022-11-29T23:01:15.858Z,27.30
2022-11-29T23:06:23.608Z,31.90
2022-11-29T23:11:29.775Z,32.00
2022-11-29T23:16:33.591Z,27.50
2022-11-29T23:21:40.098Z,25.60
2022-11-29T23:26:47.589Z,25.90
2022-11-29T23:31:50.612Z,33.40
2022-11-29T23:36:53.694Z,37.90
2022-11-29T23:41:56.669Z,33.20
2022-11-29T23:46:59.629Z,38.20
2022-11-29T23:52:02.584Z,42.30
2022-11-29T23:57:06.016Z,34.30
